Dripping Springs' Hourly Summary for Tuesday, March 14, 2017
Hour Temp
(f)
RH
(%)
Solar Rad.
(MJ/m2)
Rainfall
(in)
Wind
(mph)
3/14/2017 12:00 AM 45 100 0 0 0.17
3/14/2017 1:00 AM 44 100 0 0 0.46
3/14/2017 2:00 AM 42 100 0 0 0.21
3/14/2017 3:00 AM 41 100 0 0 0.25
3/14/2017 4:00 AM 40 98 0 0 0.94
3/14/2017 5:00 AM 40 96 0 0 0.23
3/14/2017 6:00 AM 39 88 0 0 1.1
3/14/2017 7:00 AM 36 98 0 0 0.41
3/14/2017 8:00 AM 35 99 0.01 0 0.52
3/14/2017 9:00 AM 37 99 0.38 0 0.63
3/14/2017 10:00 AM 45 55 0.58 0 2.37
3/14/2017 11:00 AM 50 47 1.43 0 4.15
3/14/2017 12:00 PM 55 43 2.56 0 3.39
3/14/2017 1:00 PM 59 43 2.93 0 5.08
3/14/2017 2:00 PM 64 38 3.09 0 5.46
3/14/2017 3:00 PM 67 37 3.01 0 7.33
3/14/2017 4:00 PM 69 35 2.69 0 7.32
3/14/2017 5:00 PM 70 33 2.17 0 7.28
3/14/2017 6:00 PM 69 35 1.03 0 8.72
3/14/2017 7:00 PM 69 37 0.62 0 8.12
3/14/2017 8:00 PM 66 38 0.12 0 5.17
3/14/2017 9:00 PM 61 49 0 0 1.59
3/14/2017 10:00 PM 57 58 0 0 0.32
3/14/2017 11:00 PM 53 67 0 0 0.63
Data Summary 52 66 20.62 0.00 2.99